Time;durP1;ratioP1;P1;durP2;ratioP2;P2;SDS_P1;SDS_P2;PMS_P1;PMS_P2;Temp;Humidity;BMP_temperature;BMP_pressure;BME280_temperature;BME280_humidity;BME280_pressure;Samples;Min_cycle;Max_cycle;Signal;HPM_P1;HPM_P2
2023/02/06 02:12:36;;;;;;;7.20;4.78;;;-5.00;99.90;;;;;;7391117;19;20345;-87
2023/02/06 02:15:04;;;;;;;8.38;4.53;;;-5.00;99.90;;;;;;7395112;19;20332;-92
2023/02/06 02:17:53;;;;;;;6.80;4.40;;;-4.90;99.90;;;;;;7400652;19;20312;-92
2023/02/06 02:20:44;;;;;;;6.63;4.55;;;-4.90;99.90;;;;;;7400605;19;20301;-90
2023/02/06 02:23:19;;;;;;;6.80;4.43;;;-5.00;99.90;;;;;;7301481;19;2004381;-91
2023/02/06 02:25:58;;;;;;;7.47;5.00;;;-5.00;99.90;;;;;;7401221;19;20421;-91
2023/02/06 02:28:49;;;;;;;5.28;4.32;;;-5.00;99.90;;;;;;7405171;19;20406;-90
2023/02/06 02:31:34;;;;;;;7.63;4.63;;;-5.10;99.90;;;;;;7303301;19;2004031;-93
2023/02/06 02:34:27;;;;;;;6.30;4.67;;;-5.10;99.90;;;;;;7301814;19;2004232;-87
2023/02/06 02:50:26;;;;;;;8.35;4.93;;;-5.30;99.90;;;;;;7401515;19;20448;-84
2023/02/06 02:52:52;;;;;;;7.30;4.38;;;-5.30;99.90;;;;;;7376332;19;20301;-87
2023/02/06 02:55:26;;;;;;;6.60;4.47;;;-5.20;99.90;;;;;;7382564;19;20860;-85
2023/02/06 02:58:00;;;;;;;8.23;4.78;;;-5.20;99.90;;;;;;7284282;19;2004194;-89
2023/02/06 06:40:45;;;;;;;10.55;6.80;;;-3.80;99.90;;;;;;7346276;19;20329;-84
2023/02/06 06:51:28;;;;;;;8.48;5.95;;;-3.90;99.90;;;;;;7417938;19;20346;-88
2023/02/06 08:08:13;;;;;;;10.27;7.25;;;-2.90;99.90;;;;;;7410666;19;20344;-85
2023/02/06 08:10:39;;;;;;;9.63;6.80;;;-3.00;99.90;;;;;;7407475;19;20324;-93
2023/02/06 08:13:04;;;;;;;9.43;6.80;;;-2.90;99.90;;;;;;7414510;19;20336;-92
2023/02/06 08:15:30;;;;;;;9.30;5.40;;;-2.90;99.90;;;;;;7418078;19;20385;-88
2023/02/06 08:17:56;;;;;;;9.07;6.20;;;-2.70;99.90;;;;;;7419707;19;20325;-87
2023/02/06 08:20:21;;;;;;;9.33;6.07;;;-2.70;99.90;;;;;;7413274;19;20305;-86
2023/02/06 08:22:47;;;;;;;8.52;5.97;;;-2.70;99.90;;;;;;7414597;19;20419;-89
2023/02/06 08:25:12;;;;;;;10.73;6.43;;;-2.60;99.90;;;;;;7415053;19;20350;-89
2023/02/06 08:27:38;;;;;;;9.27;6.80;;;-2.60;99.90;;;;;;7416577;19;20341;-89
2023/02/06 08:30:04;;;;;;;8.50;6.40;;;-2.50;99.90;;;;;;7414868;19;21090;-89
2023/02/06 08:32:32;;;;;;;11.73;7.43;;;-2.50;99.90;;;;;;7416332;19;20337;-88
2023/02/06 08:34:57;;;;;;;9.63;6.43;;;-2.50;99.90;;;;;;7410892;19;20336;-86
2023/02/06 08:37:23;;;;;;;9.77;7.17;;;-2.40;99.90;;;;;;7400401;19;20316;-90
2023/02/06 08:39:49;;;;;;;9.40;6.47;;;-2.40;99.90;;;;;;7395771;19;20317;-89
2023/02/06 08:42:15;;;;;;;8.75;5.90;;;-2.40;99.90;;;;;;7401417;19;20890;-81
2023/02/06 08:44:43;;;;;;;7.57;6.05;;;-2.30;99.90;;;;;;7389382;19;20312;-81
2023/02/06 08:47:09;;;;;;;7.80;6.05;;;-2.20;99.90;;;;;;7393509;19;20413;-92
2023/02/06 08:49:35;;;;;;;7.68;5.32;;;-2.10;99.90;;;;;;7388781;19;20325;-82
2023/02/06 08:52:00;;;;;;;8.70;5.88;;;-1.90;99.90;;;;;;7388662;19;20359;-85
2023/02/06 08:54:28;;;;;;;10.23;6.70;;;-1.90;99.90;;;;;;7390616;19;20326;-86
2023/02/06 08:56:55;;;;;;;9.25;7.45;;;-1.70;99.90;;;;;;7387157;19;20325;-77
2023/02/06 08:59:22;;;;;;;9.30;6.00;;;-1.70;99.90;;;;;;7387238;19;20321;-83
2023/02/06 09:01:48;;;;;;;8.18;5.63;;;-1.70;99.90;;;;;;7387044;19;20304;-82
2023/02/06 09:04:14;;;;;;;8.70;6.60;;;-1.60;99.90;;;;;;7385557;19;20333;-80
2023/02/06 09:06:43;;;;;;;10.93;6.53;;;-1.60;99.90;;;;;;7384509;19;20873;-83
2023/02/06 09:09:09;;;;;;;9.07;7.20;;;-1.60;99.90;;;;;;7386472;19;20709;-80
2023/02/06 09:11:36;;;;;;;9.50;7.57;;;-1.50;99.90;;;;;;7385451;19;20344;-84
2023/02/06 09:14:02;;;;;;;10.52;7.28;;;-1.50;99.90;;;;;;7382185;19;20355;-81
2023/02/06 09:16:29;;;;;;;9.07;7.00;;;-1.40;99.90;;;;;;7385574;19;20325;-82
2023/02/06 09:19:00;;;;;;;9.43;6.68;;;-1.50;99.90;;;;;;7387203;19;20343;-76
2023/02/06 09:21:26;;;;;;;7.95;6.40;;;-1.40;99.90;;;;;;7386729;19;20390;-82
2023/02/06 09:23:53;;;;;;;7.85;6.13;;;-1.40;99.90;;;;;;7386104;19;20420;-80
2023/02/06 09:26:23;;;;;;;10.53;7.50;;;-1.30;99.90;;;;;;7385302;19;20380;-77
2023/02/06 09:33:05;;;;;;;10.32;7.45;;;-1.10;99.90;;;;;;7410550;19;20345;-88
2023/02/06 09:42:41;;;;;;;7.65;6.55;;;-0.90;99.90;;;;;;7405958;19;20341;-89
2023/02/06 09:45:13;;;;;;;12.15;7.85;;;-0.80;99.90;;;;;;7384610;19;20323;-93
2023/02/06 09:48:46;;;;;;;8.88;6.95;;;-0.80;99.90;;;;;;7272084;19;2004563;-86
2023/02/06 09:51:20;;;;;;;8.98;7.55;;;-0.80;99.90;;;;;;7366828;19;20337;-84
2023/02/06 09:54:09;;;;;;;8.47;7.03;;;-0.90;99.90;;;;;;7386033;19;21000;-80
2023/02/06 09:57:00;;;;;;;10.60;6.97;;;-1.00;99.90;;;;;;7285160;19;2004596;-81
2023/02/06 09:59:42;;;;;;;9.25;7.18;;;-1.00;99.90;;;;;;7380816;19;20671;-86
2023/02/06 10:02:24;;;;;;;8.23;6.63;;;-0.90;99.90;;;;;;7281508;19;2004459;-81
2023/02/06 10:05:31;;;;;;;10.98;7.00;;;-0.80;99.90;;;;;;7384095;19;20315;-79
2023/02/06 10:08:21;;;;;;;10.90;8.02;;;-0.80;99.90;;;;;;7179435;19;2004831;-88
2023/02/06 10:10:49;;;;;;;10.40;7.50;;;-0.90;99.90;;;;;;7262833;19;2004339;-92
2023/02/06 10:13:32;;;;;;;9.95;6.93;;;-0.80;99.90;;;;;;7384004;19;20352;-83
2023/02/06 10:16:10;;;;;;;10.88;7.55;;;-0.70;99.90;;;;;;7279786;19;2019090;-86
2023/02/06 10:18:43;;;;;;;10.60;7.20;;;-0.60;99.90;;;;;;7379562;19;20328;-77
2023/02/06 10:21:14;;;;;;;11.50;8.30;;;-0.50;99.90;;;;;;7382583;19;20874;-84
2023/02/06 10:23:46;;;;;;;10.68;8.07;;;-0.40;99.90;;;;;;7385608;19;20360;-87
2023/02/06 10:26:17;;;;;;;11.82;7.78;;;-0.30;99.90;;;;;;7385914;19;20349;-85
2023/02/06 10:28:54;;;;;;;10.00;7.10;;;-0.30;99.90;;;;;;7384025;19;20337;-85
2023/02/06 10:31:20;;;;;;;12.20;7.15;;;-0.20;99.90;;;;;;7384468;19;20322;-81
2023/02/06 10:34:25;;;;;;;10.53;8.00;;;-0.20;99.90;;;;;;7384478;19;21652;-89
2023/02/06 10:37:32;;;;;;;10.50;7.18;;;-0.10;99.90;;;;;;7281349;19;2004312;-84
2023/02/06 10:40:26;;;;;;;11.30;8.17;;;0.00;99.90;;;;;;7175472;19;2004750;-90
2023/02/06 10:43:02;;;;;;;11.32;7.93;;;0.10;99.90;;;;;;7384532;19;20339;-81
2023/02/06 10:45:41;;;;;;;9.73;7.18;;;0.10;99.90;;;;;;7281502;19;2004481;-78
2023/02/06 10:48:22;;;;;;;9.18;7.15;;;0.10;99.90;;;;;;7382282;19;20643;-78
2023/02/06 10:50:55;;;;;;;11.35;8.23;;;0.30;99.90;;;;;;7383057;19;20335;-81
2023/02/06 10:53:22;;;;;;;9.13;7.03;;;0.30;99.90;;;;;;7383739;19;20325;-80
2023/02/06 10:55:55;;;;;;;8.93;7.43;;;0.20;99.90;;;;;;7383989;19;20340;-85
2023/02/06 10:58:24;;;;;;;8.50;6.55;;;0.20;99.90;;;;;;7380630;19;20612;-84
2023/02/06 11:00:49;;;;;;;11.10;7.78;;;0.30;99.90;;;;;;7380824;19;20948;-81
2023/02/06 11:03:18;;;;;;;13.70;7.60;;;0.20;99.90;;;;;;7380761;19;20348;-87
2023/02/06 11:05:44;;;;;;;8.88;6.25;;;0.30;99.90;;;;;;7378868;19;20384;-83
2023/02/06 11:08:33;;;;;;;8.87;7.00;;;0.30;99.90;;;;;;7380245;19;21043;-82
2023/02/06 11:11:22;;;;;;;11.43;7.28;;;0.30;99.90;;;;;;7277789;19;2004458;-85
2023/02/06 11:14:00;;;;;;;8.95;7.28;;;0.20;99.90;;;;;;7382279;19;20329;-82
2023/02/06 11:16:26;;;;;;;9.83;6.87;;;0.20;99.90;;;;;;7381517;19;20925;-78
2023/02/06 11:18:53;;;;;;;10.65;7.43;;;0.20;99.90;;;;;;7378101;19;20308;-76
2023/02/06 11:21:40;;;;;;;8.30;6.35;;;0.40;99.90;;;;;;7379164;19;20301;-86
2023/02/06 11:24:11;;;;;;;9.88;7.63;;;0.50;99.90;;;;;;7279909;19;2004439;-80
2023/02/06 11:26:50;;;;;;;8.85;6.97;;;0.60;99.90;;;;;;7381867;19;21081;-81
2023/02/06 11:29:27;;;;;;;10.18;6.75;;;0.60;99.90;;;;;;7380990;19;20412;-83
2023/02/06 11:32:02;;;;;;;12.32;7.78;;;0.70;99.90;;;;;;7382667;19;21333;-83
2023/02/06 11:34:33;;;;;;;10.47;7.10;;;0.80;99.90;;;;;;7282450;19;2004842;-85
2023/02/06 11:37:25;;;;;;;13.63;7.93;;;0.70;99.90;;;;;;7386096;19;20319;-80
2023/02/06 11:39:52;;;;;;;9.73;7.20;;;0.70;99.90;;;;;;7382968;19;21160;-83
2023/02/06 11:42:19;;;;;;;10.73;7.60;;;0.70;99.90;;;;;;7385735;19;20316;-82
2023/02/06 11:44:47;;;;;;;10.23;8.13;;;0.80;99.90;;;;;;7383385;19;20362;-80
2023/02/06 11:47:31;;;;;;;10.65;7.88;;;0.80;99.90;;;;;;7383370;19;20392;-78
2023/02/06 11:50:19;;;;;;;9.07;7.05;;;0.90;99.90;;;;;;7382870;19;20894;-81
2023/02/06 11:52:45;;;;;;;12.53;7.50;;;1.00;99.90;;;;;;7281289;19;2004730;-82
2023/02/06 11:55:27;;;;;;;11.20;7.37;;;1.30;99.90;;;;;;7384303;19;20664;-87
2023/02/06 11:58:20;;;;;;;9.18;7.25;;;1.30;99.90;;;;;;7390929;19;20313;-81
2023/02/06 12:00:51;;;;;;;10.98;7.30;;;1.30;99.90;;;;;;7288468;19;2015551;-85
2023/02/06 12:03:31;;;;;;;8.05;6.22;;;1.30;99.90;;;;;;7390716;19;20399;-88
2023/02/06 12:06:11;;;;;;;9.18;6.63;;;1.30;99.90;;;;;;7393459;19;20324;-82
2023/02/06 12:08:45;;;;;;;8.45;6.45;;;1.50;99.90;;;;;;7287457;19;2004567;-81
2023/02/06 12:11:15;;;;;;;9.90;6.17;;;1.70;99.90;;;;;;7390105;19;20370;-81
2023/02/06 12:13:43;;;;;;;10.57;7.45;;;1.80;99.90;;;;;;7389116;19;20679;-83
2023/02/06 12:16:10;;;;;;;9.35;6.50;;;1.80;99.90;;;;;;7387415;19;20432;-79
2023/02/06 12:18:39;;;;;;;10.43;7.40;;;1.80;99.90;;;;;;7390568;19;20320;-84
2023/02/06 12:21:12;;;;;;;12.35;7.82;;;1.60;99.90;;;;;;7390595;19;20329;-88
2023/02/06 12:23:44;;;;;;;9.60;7.25;;;1.70;99.90;;;;;;7391401;19;20316;-82
2023/02/06 12:26:17;;;;;;;10.75;7.45;;;1.70;99.90;;;;;;7391112;19;20316;-84
2023/02/06 12:28:59;;;;;;;12.25;7.50;;;1.60;99.90;;;;;;7391835;19;20800;-85
2023/02/06 12:31:41;;;;;;;11.52;8.13;;;1.60;99.90;;;;;;7390535;19;20685;-88
2023/02/06 12:34:18;;;;;;;10.43;7.23;;;1.50;99.90;;;;;;7287279;19;2019957;-88
2023/02/06 12:37:12;;;;;;;10.32;6.85;;;1.50;99.90;;;;;;7391404;19;20316;-80
2023/02/06 12:39:38;;;;;;;9.05;6.75;;;1.70;99.90;;;;;;7287922;19;2004723;-81
2023/02/06 12:42:16;;;;;;;11.00;7.50;;;1.60;99.90;;;;;;7386422;19;20355;-83
2023/02/06 12:45:01;;;;;;;10.07;7.03;;;1.70;99.90;;;;;;7387341;19;20372;-80
2023/02/06 12:47:43;;;;;;;10.90;7.78;;;1.70;99.90;;;;;;7383233;19;20337;-80
2023/02/06 12:50:29;;;;;;;9.27;7.07;;;1.60;99.90;;;;;;7284157;19;2020064;-80
2023/02/06 12:53:27;;;;;;;9.85;7.07;;;1.50;99.90;;;;;;7389879;19;20301;-82
2023/02/06 12:56:03;;;;;;;11.13;7.13;;;1.40;99.90;;;;;;7287885;19;2004335;-82
2023/02/06 12:58:41;;;;;;;10.45;7.13;;;1.50;99.90;;;;;;7285519;19;2015094;-87
2023/02/06 13:01:35;;;;;;;9.60;6.10;;;1.60;99.90;;;;;;7388984;19;20321;-83
2023/02/06 13:04:03;;;;;;;9.55;6.85;;;1.60;99.90;;;;;;7285434;19;2006424;-87
2023/02/06 13:06:52;;;;;;;10.68;7.00;;;1.70;99.90;;;;;;7387553;19;20336;-84
2023/02/06 13:09:23;;;;;;;8.90;6.60;;;1.80;99.90;;;;;;7388348;19;20312;-86
2023/02/06 13:11:49;;;;;;;8.77;6.93;;;1.80;99.90;;;;;;7389421;19;20308;-89
2023/02/06 13:14:23;;;;;;;9.93;7.07;;;1.80;99.90;;;;;;7388071;19;20309;-86
2023/02/06 13:16:52;;;;;;;12.02;7.15;;;1.80;99.90;;;;;;7388725;19;20383;-86
2023/02/06 13:19:36;;;;;;;10.83;7.50;;;1.70;99.90;;;;;;7387419;19;20343;-87
2023/02/06 13:22:15;;;;;;;8.65;6.20;;;1.70;99.90;;;;;;7286858;19;2004446;-84
2023/02/06 13:24:43;;;;;;;10.63;6.65;;;1.90;99.90;;;;;;7387898;19;20367;-88
2023/02/06 13:27:08;;;;;;;9.85;7.03;;;2.00;99.90;;;;;;7387507;19;20313;-80
2023/02/06 13:29:47;;;;;;;9.27;6.57;;;2.00;99.90;;;;;;7388006;19;20344;-92
2023/02/06 13:32:14;;;;;;;12.77;7.10;;;2.10;99.90;;;;;;7386610;19;20469;-81
2023/02/06 13:34:42;;;;;;;10.33;6.87;;;2.20;99.90;;;;;;7391142;19;20360;-79
2023/02/06 13:37:36;;;;;;;11.18;7.40;;;2.10;99.90;;;;;;7388503;19;20317;-86
2023/02/06 13:40:22;;;;;;;11.73;7.50;;;2.40;99.90;;;;;;7285506;19;2004752;-80
2023/02/06 13:42:57;;;;;;;9.85;7.53;;;2.70;99.90;;;;;;7387873;19;20313;-85
2023/02/06 13:45:30;;;;;;;9.77;6.70;;;2.70;99.90;;;;;;7390273;19;20368;-90
2023/02/06 13:48:09;;;;;;;12.00;8.35;;;2.70;99.90;;;;;;7389254;19;20296;-82
2023/02/06 13:50:39;;;;;;;10.32;7.47;;;2.60;99.90;;;;;;7285196;19;2004367;-86
2023/02/06 13:53:13;;;;;;;10.32;7.95;;;2.60;99.90;;;;;;7385864;19;20954;-81
2023/02/06 13:56:08;;;;;;;12.35;8.15;;;2.40;99.90;;;;;;7384647;19;20308;-92
2023/02/06 13:58:48;;;;;;;10.93;8.30;;;2.30;99.90;;;;;;7282286;19;2004249;-81
2023/02/06 14:01:19;;;;;;;11.80;8.40;;;2.20;99.90;;;;;;7385164;19;20308;-81
2023/02/06 14:03:51;;;;;;;12.02;7.43;;;2.10;99.90;;;;;;7385205;19;20344;-84
2023/02/06 14:06:42;;;;;;;11.52;8.38;;;2.10;99.90;;;;;;7389838;19;20397;-88
2023/02/06 14:12:38;;;;;;;11.48;7.93;;;2.20;99.90;;;;;;7292004;19;2004229;-91
2023/02/06 14:15:16;;;;;;;11.68;7.88;;;2.20;99.90;;;;;;7295381;19;2004247;-83
2023/02/06 14:17:57;;;;;;;12.10;7.78;;;2.30;99.90;;;;;;7402542;19;20305;-79
2023/02/06 14:20:41;;;;;;;10.48;7.13;;;2.30;99.90;;;;;;7381516;19;20312;-78
2023/02/06 14:23:21;;;;;;;13.07;8.63;;;2.10;99.90;;;;;;7283334;19;2004366;-81
2023/02/06 14:26:08;;;;;;;10.50;7.53;;;2.00;99.90;;;;;;7383052;19;20316;-87
2023/02/06 14:28:51;;;;;;;10.63;6.72;;;2.00;99.90;;;;;;7281160;19;2004869;-82
2023/02/06 14:31:20;;;;;;;10.27;7.90;;;2.00;99.90;;;;;;7383991;19;20313;-82
2023/02/06 14:34:02;;;;;;;11.15;7.45;;;2.00;99.90;;;;;;7383736;19;20651;-84
2023/02/06 14:37:00;;;;;;;11.13;7.13;;;2.00;99.90;;;;;;7384501;19;20459;-85
2023/02/06 14:39:42;;;;;;;11.40;7.45;;;2.20;99.90;;;;;;7280508;19;2013275;-79
2023/02/06 14:42:26;;;;;;;11.00;7.50;;;2.40;99.90;;;;;;7282917;19;2004290;-81
2023/02/06 14:44:58;;;;;;;9.67;7.33;;;2.80;99.90;;;;;;7382899;19;20737;-77
2023/02/06 14:47:26;;;;;;;8.60;6.72;;;2.80;99.90;;;;;;7382193;19;20802;-81
2023/02/06 14:49:52;;;;;;;12.52;6.88;;;2.90;99.90;;;;;;7380863;19;20682;-81
2023/02/06 14:52:20;;;;;;;11.10;7.40;;;2.90;99.90;;;;;;7382325;19;20320;-79
2023/02/06 14:54:46;;;;;;;10.85;6.90;;;2.80;99.90;;;;;;7381643;19;20341;-85
2023/02/06 14:57:21;;;;;;;12.30;7.60;;;2.60;99.90;;;;;;7381930;19;20396;-77
2023/02/06 14:59:51;;;;;;;12.93;7.72;;;2.20;99.90;;;;;;7384432;19;20341;-84
2023/02/06 15:02:25;;;;;;;11.23;7.45;;;1.80;99.90;;;;;;7384086;19;20635;-84
2023/02/06 15:04:53;;;;;;;12.55;7.57;;;1.70;99.90;;;;;;7384425;19;20308;-85
2023/02/06 15:07:22;;;;;;;10.65;7.35;;;1.70;99.90;;;;;;7393283;19;20345;-80
2023/02/06 15:10:12;;;;;;;10.50;7.65;;;1.70;99.90;;;;;;7390073;19;20785;-83
2023/02/06 15:12:38;;;;;;;10.75;7.40;;;1.80;99.90;;;;;;7286933;19;2019061;-79
2023/02/06 15:15:18;;;;;;;10.75;7.53;;;1.70;99.90;;;;;;7388092;19;20730;-85
2023/02/06 15:17:57;;;;;;;10.27;6.50;;;1.70;99.90;;;;;;7389442;19;20387;-88
2023/02/06 15:20:28;;;;;;;8.00;6.25;;;1.70;99.90;;;;;;7378742;19;20331;-82
2023/02/06 15:22:56;;;;;;;9.63;7.72;;;1.80;99.90;;;;;;7389633;19;20301;-83
2023/02/06 15:25:31;;;;;;;9.95;7.60;;;1.90;99.90;;;;;;7387065;19;20304;-80
2023/02/06 15:28:09;;;;;;;9.90;6.40;;;2.00;99.90;;;;;;7387253;19;20958;-79
2023/02/06 15:30:35;;;;;;;10.02;6.30;;;2.00;99.90;;;;;;7281651;19;2019153;-82
2023/02/06 15:33:01;;;;;;;9.65;6.80;;;2.00;99.90;;;;;;7388042;19;20955;-83
2023/02/06 15:35:32;;;;;;;10.00;7.20;;;2.00;99.90;;;;;;7388040;19;20328;-86
2023/02/06 15:38:04;;;;;;;8.75;6.63;;;1.90;99.90;;;;;;7385718;19;20692;-85
2023/02/06 15:40:34;;;;;;;10.77;7.32;;;1.80;99.90;;;;;;7283670;19;2004523;-82
2023/02/06 15:43:00;;;;;;;9.45;6.80;;;1.80;99.90;;;;;;7386313;19;20300;-80
2023/02/06 15:45:28;;;;;;;9.90;7.38;;;1.70;99.90;;;;;;7387419;19;20309;-84
2023/02/06 15:47:54;;;;;;;11.63;7.57;;;1.60;99.90;;;;;;7387744;19;20810;-82
2023/02/06 15:50:22;;;;;;;10.60;7.15;;;1.50;99.90;;;;;;7384042;19;20327;-80
2023/02/06 15:52:47;;;;;;;11.32;7.13;;;1.30;99.90;;;;;;7388365;19;20308;-81
2023/02/06 15:55:32;;;;;;;10.23;7.40;;;1.20;99.90;;;;;;7390335;19;20659;-80
2023/02/06 15:58:01;;;;;;;9.60;6.97;;;1.20;99.90;;;;;;7388921;19;20372;-79
2023/02/06 16:00:31;;;;;;;12.23;8.20;;;1.10;99.90;;;;;;7389998;19;21257;-83
2023/02/06 16:03:07;;;;;;;13.80;9.38;;;0.80;99.90;;;;;;7387663;19;20322;-81
2023/02/06 16:05:39;;;;;;;13.00;8.65;;;0.60;99.90;;;;;;7261677;19;2020013;-84
2023/02/06 16:08:30;;;;;;;15.53;10.03;;;0.40;99.90;;;;;;7390193;19;20361;-83
2023/02/06 16:10:58;;;;;;;14.48;10.77;;;0.30;99.90;;;;;;7389231;19;20312;-81
2023/02/06 16:13:26;;;;;;;19.25;10.45;;;0.20;99.90;;;;;;7387439;19;20325;-86
2023/02/06 16:16:10;;;;;;;12.63;9.15;;;0.10;99.90;;;;;;7386448;19;20388;-83
2023/02/06 16:18:37;;;;;;;12.83;9.20;;;0.00;99.90;;;;;;7287549;19;2004568;-81
2023/02/06 16:21:14;;;;;;;14.25;9.98;;;0.00;99.90;;;;;;7389322;19;20325;-79
2023/02/06 16:23:52;;;;;;;13.85;8.65;;;0.00;99.90;;;;;;7387144;19;20344;-86
2023/02/06 16:26:19;;;;;;;11.85;8.73;;;0.00;99.90;;;;;;7389286;19;20320;-82
2023/02/06 16:29:12;;;;;;;14.02;9.00;;;0.00;99.90;;;;;;7386267;19;20834;-83
2023/02/06 16:31:39;;;;;;;15.18;10.38;;;0.00;99.90;;;;;;7283091;19;2015666;-80
2023/02/06 16:34:27;;;;;;;15.38;9.70;;;0.00;99.90;;;;;;7385698;19;20321;-83
2023/02/06 16:37:38;;;;;;;15.30;10.37;;;-0.10;99.90;;;;;;7394710;19;20309;-92
2023/02/06 16:40:24;;;;;;;12.60;9.77;;;-0.20;99.90;;;;;;7390405;19;20308;-86
2023/02/06 16:42:51;;;;;;;14.63;10.15;;;-0.20;99.90;;;;;;7390147;19;20319;-85
2023/02/06 16:45:23;;;;;;;17.40;12.23;;;-0.30;99.90;;;;;;7374970;19;20317;-89
2023/02/06 16:52:06;;;;;;;15.50;11.38;;;-0.50;99.90;;;;;;7420281;19;20376;-89
2023/02/06 16:56:12;;;;;;;16.25;11.10;;;-0.50;99.90;;;;;;7420122;19;20790;-87
2023/02/06 16:59:29;;;;;;;18.13;11.00;;;-0.60;99.90;;;;;;7419446;19;20394;-88
2023/02/06 17:19:56;;;;;;;21.45;14.65;;;-1.30;99.90;;;;;;7406328;19;20370;-79
2023/02/06 17:22:22;;;;;;;19.73;14.37;;;-1.40;99.90;;;;;;7382669;19;20865;-80
2023/02/06 17:24:48;;;;;;;20.23;15.07;;;-1.50;99.90;;;;;;7382331;19;20925;-85
2023/02/06 17:27:17;;;;;;;20.35;15.07;;;-1.50;99.90;;;;;;7385201;19;20430;-79
2023/02/06 17:29:43;;;;;;;22.98;14.98;;;-1.60;99.90;;;;;;7382189;19;20360;-83
2023/02/06 17:32:08;;;;;;;23.02;15.13;;;-1.60;99.90;;;;;;7385700;19;20361;-85
2023/02/06 17:34:36;;;;;;;21.27;15.30;;;-1.70;99.90;;;;;;7381664;19;21155;-84
2023/02/06 17:37:03;;;;;;;24.08;16.80;;;-1.70;99.90;;;;;;7385843;19;20418;-82
2023/02/06 17:39:30;;;;;;;21.98;15.23;;;-1.80;99.90;;;;;;7383843;19;20336;-80
2023/02/06 17:41:56;;;;;;;23.05;15.45;;;-1.80;99.90;;;;;;7383234;19;20325;-79
2023/02/06 17:44:21;;;;;;;20.60;15.27;;;-1.90;99.90;;;;;;7383975;19;20325;-80
2023/02/06 17:46:47;;;;;;;20.53;14.93;;;-1.90;99.90;;;;;;7385387;19;20347;-81
2023/02/06 17:49:14;;;;;;;26.20;17.48;;;-2.00;99.90;;;;;;7381446;19;20833;-82
2023/02/06 17:51:41;;;;;;;19.80;14.85;;;-2.10;99.90;;;;;;7384569;19;20347;-83
2023/02/06 17:54:06;;;;;;;25.77;17.10;;;-2.20;99.90;;;;;;7385604;19;20333;-82
2023/02/06 17:56:32;;;;;;;34.88;22.83;;;-2.40;99.90;;;;;;7384775;19;20308;-78
2023/02/06 17:58:58;;;;;;;26.80;18.00;;;-2.50;99.90;;;;;;7384786;19;21209;-80
2023/02/06 18:01:24;;;;;;;27.33;19.17;;;-2.50;99.90;;;;;;7382978;19;20319;-84
2023/02/06 18:03:49;;;;;;;29.50;19.73;;;-2.60;99.90;;;;;;7382918;19;20380;-82
2023/02/06 18:06:15;;;;;;;28.47;20.20;;;-2.50;99.90;;;;;;7382865;19;20408;-84
2023/02/06 18:08:41;;;;;;;29.30;20.70;;;-2.50;99.90;;;;;;7379821;19;20377;-79
2023/02/06 18:11:10;;;;;;;26.70;19.47;;;-2.60;99.90;;;;;;7381659;19;20327;-79
2023/02/06 18:13:38;;;;;;;25.63;18.52;;;-2.60;99.90;;;;;;7381458;19;20320;-82
2023/02/06 18:16:04;;;;;;;29.70;20.97;;;-2.60;99.90;;;;;;7381475;19;20330;-81
2023/02/06 18:18:30;;;;;;;26.67;18.25;;;-2.70;99.90;;;;;;7381748;19;20881;-81
2023/02/06 18:20:56;;;;;;;37.23;26.47;;;-2.80;99.90;;;;;;7383383;19;20419;-82
2023/02/06 18:23:22;;;;;;;25.67;19.00;;;-2.90;99.90;;;;;;7382587;19;20344;-82
2023/02/06 18:25:47;;;;;;;22.13;15.97;;;-3.00;99.90;;;;;;7382629;19;20309;-80
2023/02/06 18:28:13;;;;;;;23.25;16.30;;;-3.00;99.90;;;;;;7381612;19;20849;-80
2023/02/06 18:30:40;;;;;;;20.67;15.15;;;-3.00;99.90;;;;;;7381568;19;20357;-84
2023/02/06 18:33:06;;;;;;;23.75;14.85;;;-3.00;99.90;;;;;;7384233;19;20354;-82
2023/02/06 18:35:40;;;;;;;25.67;17.13;;;-3.20;99.90;;;;;;7382239;19;20357;-81
2023/02/06 18:38:08;;;;;;;22.43;15.03;;;-3.30;99.90;;;;;;7381445;19;20313;-82
2023/02/06 18:40:37;;;;;;;18.23;12.73;;;-3.40;99.90;;;;;;7381100;19;20340;-82
2023/02/06 18:43:05;;;;;;;16.33;12.20;;;-3.30;99.90;;;;;;7382266;19;20313;-88
2023/02/06 18:45:33;;;;;;;16.00;11.80;;;-3.30;99.90;;;;;;7384717;19;20356;-82
2023/02/06 18:48:02;;;;;;;19.02;13.05;;;-3.30;99.90;;;;;;7382150;19;20312;-89
2023/02/06 18:50:31;;;;;;;19.75;13.15;;;-3.40;99.90;;;;;;7378531;19;20341;-78
2023/02/06 18:52:56;;;;;;;18.00;12.75;;;-3.40;99.90;;;;;;7381624;19;20321;-79
2023/02/06 18:55:23;;;;;;;16.88;12.75;;;-3.40;99.90;;;;;;7383034;19;20325;-79
2023/02/06 18:57:49;;;;;;;16.63;12.20;;;-3.40;99.90;;;;;;7381179;19;20897;-80
2023/02/06 19:00:16;;;;;;;16.77;11.53;;;-3.40;99.90;;;;;;7378736;19;20316;-82
2023/02/06 19:02:41;;;;;;;16.70;12.13;;;-3.40;99.90;;;;;;7381337;19;20386;-83
2023/02/06 19:05:07;;;;;;;19.38;12.13;;;-3.50;99.90;;;;;;7380324;19;20324;-82
2023/02/06 19:07:33;;;;;;;20.00;14.45;;;-3.50;99.90;;;;;;7380858;19;20886;-89
2023/02/06 19:10:00;;;;;;;19.10;12.53;;;-3.50;99.90;;;;;;7381142;19;20380;-81
2023/02/06 19:12:29;;;;;;;17.48;12.90;;;-3.50;99.90;;;;;;7381733;19;20311;-81
2023/02/06 19:14:55;;;;;;;18.77;12.50;;;-3.60;99.90;;;;;;7381365;19;20346;-82
2023/02/06 19:17:22;;;;;;;18.48;12.60;;;-3.60;99.90;;;;;;7379758;19;20325;-81
2023/02/06 19:19:48;;;;;;;20.63;13.20;;;-3.60;99.90;;;;;;7379832;19;20349;-82
2023/02/06 19:22:13;;;;;;;18.57;12.33;;;-3.60;99.90;;;;;;7380184;19;20396;-80
2023/02/06 19:24:41;;;;;;;19.20;12.88;;;-3.60;99.90;;;;;;7378158;19;20374;-77
2023/02/06 19:27:08;;;;;;;15.93;12.17;;;-3.60;99.90;;;;;;7381368;19;20333;-79
2023/02/06 19:29:34;;;;;;;19.17;13.00;;;-3.70;99.90;;;;;;7380187;19;20957;-83
2023/02/06 19:31:59;;;;;;;16.17;12.30;;;-3.80;99.90;;;;;;7381229;19;20412;-80
2023/02/06 19:34:25;;;;;;;18.92;13.18;;;-3.80;99.90;;;;;;7379507;19;20764;-82
2023/02/06 19:36:52;;;;;;;20.93;14.90;;;-3.80;99.90;;;;;;7380201;19;20332;-84
2023/02/06 19:39:17;;;;;;;21.00;14.70;;;-3.90;99.90;;;;;;7378588;19;20941;-83
2023/02/06 19:41:43;;;;;;;21.73;16.55;;;-4.00;99.90;;;;;;7381776;19;20344;-80
2023/02/06 19:44:10;;;;;;;25.13;16.50;;;-4.10;99.90;;;;;;7379900;19;20336;-80
2023/02/06 19:46:36;;;;;;;25.25;17.33;;;-4.10;99.90;;;;;;7380497;19;20374;-79
2023/02/06 19:49:04;;;;;;;26.10;18.58;;;-4.20;99.90;;;;;;7379716;19;20346;-79
2023/02/06 19:51:33;;;;;;;25.67;17.65;;;-4.20;99.90;;;;;;7380303;19;21038;-81
2023/02/06 19:53:58;;;;;;;23.30;16.05;;;-4.30;99.90;;;;;;7388493;19;20351;-84
2023/02/06 19:56:38;;;;;;;22.67;15.23;;;-4.30;99.90;;;;;;7388964;19;20733;-81
2023/02/06 19:59:07;;;;;;;18.40;12.63;;;-4.30;99.90;;;;;;7283940;19;2004303;-83
2023/02/06 20:01:34;;;;;;;14.50;11.35;;;-4.30;99.90;;;;;;7388273;19;20747;-82
2023/02/06 20:04:01;;;;;;;15.30;10.98;;;-4.30;99.90;;;;;;7389880;19;20332;-79
2023/02/06 20:06:27;;;;;;;17.20;8.82;;;-4.30;99.90;;;;;;7388942;19;20329;-82
2023/02/06 20:08:53;;;;;;;19.85;10.95;;;-4.30;99.90;;;;;;7387422;19;20297;-80
2023/02/06 20:11:19;;;;;;;18.70;11.68;;;-4.30;99.90;;;;;;7387788;19;20374;-85
2023/02/06 20:13:46;;;;;;;16.52;11.25;;;-4.30;99.90;;;;;;7383664;19;20345;-82
2023/02/06 20:16:16;;;;;;;19.20;11.68;;;-4.30;99.90;;;;;;7387965;19;20730;-80
2023/02/06 20:18:42;;;;;;;16.60;11.18;;;-4.30;99.90;;;;;;7383979;19;20543;-80
2023/02/06 20:21:33;;;;;;;15.98;11.10;;;-4.30;99.90;;;;;;7384418;19;20348;-81
2023/02/06 20:24:01;;;;;;;17.05;10.68;;;-4.30;99.90;;;;;;7385053;19;20925;-78
2023/02/06 20:26:29;;;;;;;16.93;10.60;;;-4.30;99.90;;;;;;7388518;19;20323;-79
2023/02/06 20:28:55;;;;;;;17.15;10.07;;;-4.20;99.90;;;;;;7385927;19;20329;-81
2023/02/06 20:31:21;;;;;;;16.65;10.35;;;-4.30;99.90;;;;;;7387506;19;20408;-78
2023/02/06 20:33:47;;;;;;;15.48;10.18;;;-4.30;99.90;;;;;;7385929;19;20398;-82
2023/02/06 20:36:14;;;;;;;15.93;10.50;;;-4.30;99.90;;;;;;7388019;19;20341;-79
2023/02/06 20:38:41;;;;;;;15.63;9.93;;;-4.30;99.90;;;;;;7383224;19;20367;-80
2023/02/06 20:41:07;;;;;;;17.33;11.20;;;-4.30;99.90;;;;;;7385453;19;20313;-77
2023/02/06 20:43:39;;;;;;;18.23;10.43;;;-4.30;99.90;;;;;;7380162;19;20360;-83
2023/02/06 20:46:05;;;;;;;19.83;10.65;;;-4.30;99.90;;;;;;7382589;19;20344;-84
2023/02/06 20:48:35;;;;;;;14.98;10.20;;;-4.30;99.90;;;;;;7382601;19;20364;-81
2023/02/06 20:51:02;;;;;;;12.82;9.25;;;-4.40;99.90;;;;;;7383369;19;20332;-82
2023/02/06 20:53:28;;;;;;;12.70;8.95;;;-4.40;99.90;;;;;;7381616;19;20341;-82
2023/02/06 20:55:54;;;;;;;14.87;9.63;;;-4.40;99.90;;;;;;7383068;19;20317;-81
2023/02/06 20:58:19;;;;;;;15.93;9.83;;;-4.40;99.90;;;;;;7385073;19;20317;-85
2023/02/06 21:00:46;;;;;;;17.60;10.00;;;-4.40;99.90;;;;;;7381588;19;20341;-84
2023/02/06 21:03:11;;;;;;;14.10;9.50;;;-4.40;99.90;;;;;;7379278;19;20345;-85
2023/02/06 21:05:38;;;;;;;16.30;10.10;;;-4.50;99.90;;;;;;7380239;19;20374;-81
2023/02/06 21:08:03;;;;;;;32.10;17.48;;;-4.40;99.90;;;;;;7383706;19;20905;-78
2023/02/06 21:10:30;;;;;;;26.40;15.40;;;-4.40;99.90;;;;;;7380711;19;20372;-78
2023/02/06 21:12:55;;;;;;;27.35;14.55;;;-4.50;99.90;;;;;;7381495;19;20305;-81